sensor_id;sensor_type;location;lat;lon;timestamp;P1;durP1;ratioP1;P2;durP2;ratioP2
53263;SDS011;39153;52.680;6.172;2023-12-14T00:01:44;15.90;;;8.82;;
53263;SDS011;39153;52.680;6.172;2023-12-14T00:04:11;18.92;;;8.65;;
53263;SDS011;39153;52.680;6.172;2023-12-14T00:06:37;15.25;;;9.30;;
53263;SDS011;39153;52.680;6.172;2023-12-14T00:09:02;15.32;;;7.97;;
53263;SDS011;39153;52.680;6.172;2023-12-14T00:11:28;14.63;;;8.32;;
53263;SDS011;39153;52.680;6.172;2023-12-14T00:13:54;16.77;;;8.55;;
53263;SDS011;39153;52.680;6.172;2023-12-14T00:16:20;16.23;;;8.40;;
53263;SDS011;39153;52.680;6.172;2023-12-14T00:18:45;17.27;;;8.82;;
53263;SDS011;39153;52.680;6.172;2023-12-14T00:21:11;15.85;;;7.95;;
53263;SDS011;39153;52.680;6.172;2023-12-14T00:23:37;18.88;;;8.75;;
53263;SDS011;39153;52.680;6.172;2023-12-14T00:26:02;16.35;;;8.20;;
53263;SDS011;39153;52.680;6.172;2023-12-14T00:28:28;17.10;;;8.70;;
53263;SDS011;39153;52.680;6.172;2023-12-14T00:30:54;16.20;;;8.48;;
53263;SDS011;39153;52.680;6.172;2023-12-14T00:33:20;17.88;;;8.50;;
53263;SDS011;39153;52.680;6.172;2023-12-14T00:35:45;18.15;;;8.90;;
53263;SDS011;39153;52.680;6.172;2023-12-14T00:38:11;20.02;;;8.85;;
53263;SDS011;39153;52.680;6.172;2023-12-14T00:40:37;14.77;;;8.60;;
53263;SDS011;39153;52.680;6.172;2023-12-14T00:43:02;14.70;;;8.43;;
53263;SDS011;39153;52.680;6.172;2023-12-14T00:45:28;17.10;;;8.45;;
53263;SDS011;39153;52.680;6.172;2023-12-14T00:47:54;16.77;;;8.52;;
53263;SDS011;39153;52.680;6.172;2023-12-14T00:50:19;15.65;;;8.30;;
53263;SDS011;39153;52.680;6.172;2023-12-14T00:52:45;15.88;;;8.48;;
53263;SDS011;39153;52.680;6.172;2023-12-14T00:55:11;16.73;;;8.73;;
53263;SDS011;39153;52.680;6.172;2023-12-14T00:57:36;16.83;;;9.05;;
53263;SDS011;39153;52.680;6.172;2023-12-14T01:00:02;16.00;;;8.70;;
53263;SDS011;39153;52.680;6.172;2023-12-14T01:02:28;14.27;;;7.90;;
53263;SDS011;39153;52.680;6.172;2023-12-14T01:04:54;14.50;;;7.68;;
53263;SDS011;39153;52.680;6.172;2023-12-14T01:07:20;15.18;;;8.38;;
53263;SDS011;39153;52.680;6.172;2023-12-14T01:09:45;16.02;;;8.13;;
53263;SDS011;39153;52.680;6.172;2023-12-14T01:12:11;15.35;;;7.72;;
53263;SDS011;39153;52.680;6.172;2023-12-14T01:14:37;15.82;;;7.95;;
53263;SDS011;39153;52.680;6.172;2023-12-14T01:17:02;12.50;;;7.20;;
53263;SDS011;39153;52.680;6.172;2023-12-14T01:19:28;18.65;;;8.50;;
53263;SDS011;39153;52.680;6.172;2023-12-14T01:21:54;13.27;;;6.93;;
53263;SDS011;39153;52.680;6.172;2023-12-14T01:24:20;14.65;;;7.60;;
53263;SDS011;39153;52.680;6.172;2023-12-14T01:26:46;12.48;;;7.28;;
53263;SDS011;39153;52.680;6.172;2023-12-14T01:29:11;15.70;;;7.72;;
53263;SDS011;39153;52.680;6.172;2023-12-14T01:31:37;15.40;;;7.72;;
53263;SDS011;39153;52.680;6.172;2023-12-14T01:34:03;15.00;;;7.60;;
53263;SDS011;39153;52.680;6.172;2023-12-14T01:36:28;16.58;;;8.02;;
53263;SDS011;39153;52.680;6.172;2023-12-14T01:38:54;15.00;;;7.80;;
53263;SDS011;39153;52.680;6.172;2023-12-14T01:41:20;15.07;;;7.80;;
53263;SDS011;39153;52.680;6.172;2023-12-14T01:43:45;18.27;;;8.43;;
53263;SDS011;39153;52.680;6.172;2023-12-14T01:46:11;15.73;;;8.23;;
53263;SDS011;39153;52.680;6.172;2023-12-14T01:48:38;16.83;;;8.48;;
53263;SDS011;39153;52.680;6.172;2023-12-14T01:51:04;19.85;;;8.88;;
53263;SDS011;39153;52.680;6.172;2023-12-14T01:53:29;17.58;;;8.13;;
53263;SDS011;39153;52.680;6.172;2023-12-14T01:55:55;17.38;;;8.32;;
53263;SDS011;39153;52.680;6.172;2023-12-14T01:58:21;17.67;;;8.73;;
53263;SDS011;39153;52.680;6.172;2023-12-14T02:03:50;17.88;;;8.82;;
53263;SDS011;39153;52.680;6.172;2023-12-14T02:06:17;15.40;;;8.63;;
53263;SDS011;39153;52.680;6.172;2023-12-14T02:08:43;15.73;;;8.82;;
53263;SDS011;39153;52.680;6.172;2023-12-14T02:11:09;19.35;;;8.15;;
53263;SDS011;39153;52.680;6.172;2023-12-14T02:13:35;17.33;;;8.15;;
53263;SDS011;39153;52.680;6.172;2023-12-14T02:16:01;16.60;;;8.02;;
53263;SDS011;39153;52.680;6.172;2023-12-14T02:18:26;14.25;;;8.02;;
53263;SDS011;39153;52.680;6.172;2023-12-14T02:20:52;17.52;;;8.15;;
53263;SDS011;39153;52.680;6.172;2023-12-14T02:23:18;17.85;;;8.30;;
53263;SDS011;39153;52.680;6.172;2023-12-14T02:25:43;15.02;;;7.95;;
53263;SDS011;39153;52.680;6.172;2023-12-14T02:28:09;15.65;;;8.05;;
53263;SDS011;39153;52.680;6.172;2023-12-14T02:30:35;17.60;;;8.80;;
53263;SDS011;39153;52.680;6.172;2023-12-14T02:33:00;18.25;;;8.80;;
53263;SDS011;39153;52.680;6.172;2023-12-14T02:35:26;21.90;;;9.30;;
53263;SDS011;39153;52.680;6.172;2023-12-14T02:37:52;21.73;;;8.57;;
53263;SDS011;39153;52.680;6.172;2023-12-14T02:40:17;16.45;;;8.57;;
53263;SDS011;39153;52.680;6.172;2023-12-14T02:42:43;18.77;;;9.32;;
53263;SDS011;39153;52.680;6.172;2023-12-14T02:45:09;18.27;;;9.02;;
53263;SDS011;39153;52.680;6.172;2023-12-14T02:47:35;19.23;;;8.30;;
53263;SDS011;39153;52.680;6.172;2023-12-14T02:50:00;18.05;;;8.55;;
53263;SDS011;39153;52.680;6.172;2023-12-14T02:52:26;20.25;;;8.82;;
53263;SDS011;39153;52.680;6.172;2023-12-14T02:54:52;18.27;;;8.10;;
53263;SDS011;39153;52.680;6.172;2023-12-14T02:57:17;19.08;;;7.88;;
53263;SDS011;39153;52.680;6.172;2023-12-14T02:59:43;20.00;;;8.10;;
53263;SDS011;39153;52.680;6.172;2023-12-14T03:02:09;18.00;;;8.30;;
53263;SDS011;39153;52.680;6.172;2023-12-14T03:04:37;16.40;;;8.02;;
53263;SDS011;39153;52.680;6.172;2023-12-14T03:07:04;12.80;;;7.35;;
53263;SDS011;39153;52.680;6.172;2023-12-14T03:09:30;13.98;;;6.97;;
53263;SDS011;39153;52.680;6.172;2023-12-14T03:11:56;17.15;;;7.55;;
53263;SDS011;39153;52.680;6.172;2023-12-14T03:14:22;14.95;;;6.97;;
53263;SDS011;39153;52.680;6.172;2023-12-14T03:16:48;13.07;;;7.03;;
53263;SDS011;39153;52.680;6.172;2023-12-14T03:19:17;15.07;;;7.75;;
53263;SDS011;39153;52.680;6.172;2023-12-14T03:21:43;13.32;;;6.50;;
53263;SDS011;39153;52.680;6.172;2023-12-14T03:24:08;13.23;;;6.82;;
53263;SDS011;39153;52.680;6.172;2023-12-14T03:26:37;11.52;;;6.65;;
53263;SDS011;39153;52.680;6.172;2023-12-14T03:29:02;12.60;;;5.95;;
53263;SDS011;39153;52.680;6.172;2023-12-14T03:31:28;13.90;;;6.97;;
53263;SDS011;39153;52.680;6.172;2023-12-14T03:33:54;12.85;;;6.88;;
53263;SDS011;39153;52.680;6.172;2023-12-14T03:36:20;12.50;;;6.72;;
53263;SDS011;39153;52.680;6.172;2023-12-14T03:38:47;11.07;;;6.03;;
53263;SDS011;39153;52.680;6.172;2023-12-14T03:41:13;18.00;;;6.47;;
53263;SDS011;39153;52.680;6.172;2023-12-14T03:43:39;11.88;;;6.22;;
53263;SDS011;39153;52.680;6.172;2023-12-14T03:46:04;13.68;;;6.28;;
53263;SDS011;39153;52.680;6.172;2023-12-14T03:48:31;13.52;;;5.80;;
53263;SDS011;39153;52.680;6.172;2023-12-14T03:50:57;12.80;;;5.82;;
53263;SDS011;39153;52.680;6.172;2023-12-14T03:53:23;11.60;;;6.40;;
53263;SDS011;39153;52.680;6.172;2023-12-14T03:55:48;9.73;;;5.35;;
53263;SDS011;39153;52.680;6.172;2023-12-14T03:58:14;12.02;;;6.43;;
53263;SDS011;39153;52.680;6.172;2023-12-14T04:00:39;11.38;;;5.88;;
53263;SDS011;39153;52.680;6.172;2023-12-14T04:03:05;11.48;;;5.88;;
53263;SDS011;39153;52.680;6.172;2023-12-14T04:05:31;9.75;;;5.50;;
53263;SDS011;39153;52.680;6.172;2023-12-14T04:07:56;11.02;;;5.50;;
53263;SDS011;39153;52.680;6.172;2023-12-14T04:10:22;11.45;;;6.00;;
53263;SDS011;39153;52.680;6.172;2023-12-14T04:12:48;13.70;;;6.28;;
53263;SDS011;39153;52.680;6.172;2023-12-14T04:15:13;12.63;;;6.35;;
53263;SDS011;39153;52.680;6.172;2023-12-14T04:17:39;12.00;;;6.53;;
53263;SDS011;39153;52.680;6.172;2023-12-14T04:20:05;12.40;;;6.03;;
53263;SDS011;39153;52.680;6.172;2023-12-14T04:22:31;13.02;;;5.88;;
53263;SDS011;39153;52.680;6.172;2023-12-14T04:24:57;12.43;;;6.28;;
53263;SDS011;39153;52.680;6.172;2023-12-14T04:27:22;15.13;;;6.75;;
53263;SDS011;39153;52.680;6.172;2023-12-14T04:29:52;14.27;;;6.63;;
53263;SDS011;39153;52.680;6.172;2023-12-14T04:32:18;12.02;;;6.70;;
53263;SDS011;39153;52.680;6.172;2023-12-14T04:34:43;12.18;;;6.63;;
53263;SDS011;39153;52.680;6.172;2023-12-14T04:37:09;12.38;;;6.63;;
53263;SDS011;39153;52.680;6.172;2023-12-14T04:39:35;14.70;;;6.57;;
53263;SDS011;39153;52.680;6.172;2023-12-14T04:42:00;13.77;;;6.07;;
53263;SDS011;39153;52.680;6.172;2023-12-14T04:44:26;15.18;;;6.80;;
53263;SDS011;39153;52.680;6.172;2023-12-14T04:46:52;16.73;;;7.85;;
53263;SDS011;39153;52.680;6.172;2023-12-14T04:49:18;21.73;;;8.10;;
53263;SDS011;39153;52.680;6.172;2023-12-14T04:51:44;16.55;;;7.28;;
53263;SDS011;39153;52.680;6.172;2023-12-14T04:54:10;16.73;;;7.30;;
53263;SDS011;39153;52.680;6.172;2023-12-14T04:56:36;17.33;;;7.30;;
53263;SDS011;39153;52.680;6.172;2023-12-14T04:59:01;15.32;;;6.90;;
53263;SDS011;39153;52.680;6.172;2023-12-14T05:01:27;21.13;;;8.30;;
53263;SDS011;39153;52.680;6.172;2023-12-14T05:03:53;17.35;;;12.90;;
53263;SDS011;39153;52.680;6.172;2023-12-14T05:06:19;15.27;;;7.60;;
53263;SDS011;39153;52.680;6.172;2023-12-14T05:08:45;17.95;;;7.57;;
53263;SDS011;39153;52.680;6.172;2023-12-14T05:11:12;17.58;;;8.57;;
53263;SDS011;39153;52.680;6.172;2023-12-14T05:13:38;16.42;;;8.15;;
53263;SDS011;39153;52.680;6.172;2023-12-14T05:16:03;16.75;;;8.20;;
53263;SDS011;39153;52.680;6.172;2023-12-14T05:18:29;18.38;;;7.90;;
53263;SDS011;39153;52.680;6.172;2023-12-14T05:20:55;18.75;;;7.53;;
53263;SDS011;39153;52.680;6.172;2023-12-14T05:23:21;17.58;;;7.80;;
53263;SDS011;39153;52.680;6.172;2023-12-14T05:25:46;18.67;;;8.13;;
53263;SDS011;39153;52.680;6.172;2023-12-14T05:28:12;15.05;;;7.40;;
53263;SDS011;39153;52.680;6.172;2023-12-14T05:30:38;19.83;;;7.97;;
53263;SDS011;39153;52.680;6.172;2023-12-14T05:33:04;14.27;;;6.90;;
53263;SDS011;39153;52.680;6.172;2023-12-14T05:35:29;17.10;;;7.72;;
53263;SDS011;39153;52.680;6.172;2023-12-14T05:37:55;15.38;;;7.47;;
53263;SDS011;39153;52.680;6.172;2023-12-14T05:40:21;19.67;;;7.47;;
53263;SDS011;39153;52.680;6.172;2023-12-14T05:42:47;16.05;;;7.57;;
53263;SDS011;39153;52.680;6.172;2023-12-14T05:45:13;17.95;;;7.85;;
53263;SDS011;39153;52.680;6.172;2023-12-14T05:47:39;14.00;;;7.15;;
53263;SDS011;39153;52.680;6.172;2023-12-14T05:50:06;17.67;;;7.68;;
53263;SDS011;39153;52.680;6.172;2023-12-14T05:52:34;15.27;;;7.30;;
53263;SDS011;39153;52.680;6.172;2023-12-14T05:55:01;14.02;;;7.00;;
53263;SDS011;39153;52.680;6.172;2023-12-14T05:57:26;16.05;;;7.85;;
53263;SDS011;39153;52.680;6.172;2023-12-14T05:59:52;16.08;;;6.97;;
53263;SDS011;39153;52.680;6.172;2023-12-14T06:02:18;13.10;;;7.22;;
53263;SDS011;39153;52.680;6.172;2023-12-14T06:04:44;14.93;;;6.13;;
53263;SDS011;39153;52.680;6.172;2023-12-14T06:07:09;14.52;;;6.60;;
53263;SDS011;39153;52.680;6.172;2023-12-14T06:09:35;14.02;;;6.28;;
53263;SDS011;39153;52.680;6.172;2023-12-14T06:12:01;15.63;;;6.88;;
53263;SDS011;39153;52.680;6.172;2023-12-14T06:14:27;13.57;;;6.93;;
53263;SDS011;39153;52.680;6.172;2023-12-14T06:16:53;14.70;;;6.47;;
53263;SDS011;39153;52.680;6.172;2023-12-14T06:19:19;17.77;;;7.90;;
53263;SDS011;39153;52.680;6.172;2023-12-14T06:21:45;13.70;;;6.97;;
53263;SDS011;39153;52.680;6.172;2023-12-14T06:24:11;17.08;;;6.75;;
53263;SDS011;39153;52.680;6.172;2023-12-14T06:26:40;16.92;;;7.15;;
53263;SDS011;39153;52.680;6.172;2023-12-14T06:29:07;17.63;;;6.93;;
53263;SDS011;39153;52.680;6.172;2023-12-14T06:31:32;17.52;;;7.10;;
53263;SDS011;39153;52.680;6.172;2023-12-14T06:33:58;18.75;;;7.55;;
53263;SDS011;39153;52.680;6.172;2023-12-14T06:36:25;15.85;;;6.80;;
53263;SDS011;39153;52.680;6.172;2023-12-14T06:38:54;18.65;;;7.82;;
53263;SDS011;39153;52.680;6.172;2023-12-14T06:41:21;15.90;;;7.45;;
53263;SDS011;39153;52.680;6.172;2023-12-14T06:43:47;15.07;;;8.00;;
53263;SDS011;39153;52.680;6.172;2023-12-14T06:46:14;13.77;;;6.93;;
53263;SDS011;39153;52.680;6.172;2023-12-14T06:48:40;17.08;;;7.80;;
53263;SDS011;39153;52.680;6.172;2023-12-14T06:51:06;16.05;;;6.50;;
53263;SDS011;39153;52.680;6.172;2023-12-14T06:53:32;15.65;;;7.03;;
53263;SDS011;39153;52.680;6.172;2023-12-14T06:55:59;14.93;;;7.70;;
53263;SDS011;39153;52.680;6.172;2023-12-14T06:58:24;18.15;;;6.97;;
53263;SDS011;39153;52.680;6.172;2023-12-14T07:00:50;18.10;;;7.38;;
53263;SDS011;39153;52.680;6.172;2023-12-14T07:03:16;20.33;;;7.75;;
53263;SDS011;39153;52.680;6.172;2023-12-14T07:05:41;20.20;;;7.13;;
53263;SDS011;39153;52.680;6.172;2023-12-14T07:08:07;15.27;;;7.03;;
53263;SDS011;39153;52.680;6.172;2023-12-14T07:10:33;16.45;;;7.90;;
53263;SDS011;39153;52.680;6.172;2023-12-14T07:12:59;18.98;;;8.00;;
53263;SDS011;39153;52.680;6.172;2023-12-14T07:15:25;16.67;;;7.70;;
53263;SDS011;39153;52.680;6.172;2023-12-14T07:17:50;17.55;;;7.75;;
53263;SDS011;39153;52.680;6.172;2023-12-14T07:20:16;19.15;;;7.47;;
53263;SDS011;39153;52.680;6.172;2023-12-14T07:22:42;18.23;;;7.35;;
53263;SDS011;39153;52.680;6.172;2023-12-14T07:25:08;14.00;;;7.03;;
53263;SDS011;39153;52.680;6.172;2023-12-14T07:27:33;17.83;;;7.47;;
53263;SDS011;39153;52.680;6.172;2023-12-14T07:29:59;14.57;;;7.55;;
53263;SDS011;39153;52.680;6.172;2023-12-14T07:32:25;16.45;;;7.32;;
53263;SDS011;39153;52.680;6.172;2023-12-14T07:34:52;20.27;;;7.18;;
53263;SDS011;39153;52.680;6.172;2023-12-14T07:37:17;16.58;;;6.78;;
53263;SDS011;39153;52.680;6.172;2023-12-14T07:39:43;13.93;;;6.93;;
53263;SDS011;39153;52.680;6.172;2023-12-14T07:42:09;17.58;;;7.03;;
53263;SDS011;39153;52.680;6.172;2023-12-14T07:44:36;19.75;;;7.72;;
53263;SDS011;39153;52.680;6.172;2023-12-14T07:47:02;17.35;;;7.05;;
53263;SDS011;39153;52.680;6.172;2023-12-14T07:49:28;18.30;;;7.43;;
53263;SDS011;39153;52.680;6.172;2023-12-14T07:51:54;17.17;;;7.53;;
53263;SDS011;39153;52.680;6.172;2023-12-14T07:54:19;13.38;;;6.47;;
53263;SDS011;39153;52.680;6.172;2023-12-14T07:56:45;15.38;;;6.93;;
53263;SDS011;39153;52.680;6.172;2023-12-14T07:59:11;18.52;;;7.32;;
53263;SDS011;39153;52.680;6.172;2023-12-14T08:01:38;13.77;;;7.00;;
53263;SDS011;39153;52.680;6.172;2023-12-14T08:04:04;17.55;;;7.35;;
53263;SDS011;39153;52.680;6.172;2023-12-14T08:06:29;16.25;;;6.95;;
53263;SDS011;39153;52.680;6.172;2023-12-14T08:08:55;17.00;;;7.03;;
53263;SDS011;39153;52.680;6.172;2023-12-14T08:11:23;18.95;;;7.63;;
53263;SDS011;39153;52.680;6.172;2023-12-14T08:13:49;15.13;;;7.28;;
53263;SDS011;39153;52.680;6.172;2023-12-14T08:16:15;20.60;;;7.95;;
53263;SDS011;39153;52.680;6.172;2023-12-14T08:18:42;18.92;;;7.85;;
53263;SDS011;39153;52.680;6.172;2023-12-14T08:21:11;18.50;;;7.85;;
53263;SDS011;39153;52.680;6.172;2023-12-14T08:23:37;20.88;;;8.18;;
53263;SDS011;39153;52.680;6.172;2023-12-14T08:26:03;18.42;;;8.00;;
53263;SDS011;39153;52.680;6.172;2023-12-14T08:28:28;17.05;;;7.22;;
53263;SDS011;39153;52.680;6.172;2023-12-14T08:30:54;20.35;;;8.55;;
53263;SDS011;39153;52.680;6.172;2023-12-14T08:33:23;22.58;;;8.07;;
53263;SDS011;39153;52.680;6.172;2023-12-14T08:35:48;18.95;;;8.65;;
53263;SDS011;39153;52.680;6.172;2023-12-14T08:38:15;20.30;;;9.15;;
53263;SDS011;39153;52.680;6.172;2023-12-14T08:40:41;21.90;;;8.65;;
53263;SDS011;39153;52.680;6.172;2023-12-14T08:43:07;19.52;;;8.98;;
53263;SDS011;39153;52.680;6.172;2023-12-14T08:45:33;31.08;;;9.55;;
53263;SDS011;39153;52.680;6.172;2023-12-14T08:47:58;24.52;;;9.50;;
53263;SDS011;39153;52.680;6.172;2023-12-14T08:50:24;25.25;;;9.40;;
53263;SDS011;39153;52.680;6.172;2023-12-14T08:52:51;21.23;;;9.27;;
53263;SDS011;39153;52.680;6.172;2023-12-14T08:55:17;23.58;;;9.52;;
53263;SDS011;39153;52.680;6.172;2023-12-14T08:57:43;24.55;;;9.10;;
53263;SDS011;39153;52.680;6.172;2023-12-14T09:00:09;26.67;;;9.68;;
53263;SDS011;39153;52.680;6.172;2023-12-14T09:02:36;22.38;;;9.95;;
53263;SDS011;39153;52.680;6.172;2023-12-14T09:05:02;21.70;;;9.55;;
53263;SDS011;39153;52.680;6.172;2023-12-14T09:07:29;24.27;;;8.65;;
53263;SDS011;39153;52.680;6.172;2023-12-14T09:09:55;24.05;;;9.02;;
53263;SDS011;39153;52.680;6.172;2023-12-14T09:12:21;27.10;;;9.70;;
53263;SDS011;39153;52.680;6.172;2023-12-14T09:14:47;24.10;;;8.77;;
53263;SDS011;39153;52.680;6.172;2023-12-14T09:17:12;28.30;;;9.63;;
53263;SDS011;39153;52.680;6.172;2023-12-14T09:19:38;25.98;;;9.20;;
53263;SDS011;39153;52.680;6.172;2023-12-14T09:22:04;23.02;;;8.85;;
53263;SDS011;39153;52.680;6.172;2023-12-14T09:24:29;24.83;;;10.10;;
53263;SDS011;39153;52.680;6.172;2023-12-14T09:26:55;26.48;;;9.98;;
53263;SDS011;39153;52.680;6.172;2023-12-14T09:29:21;19.73;;;9.38;;
53263;SDS011;39153;52.680;6.172;2023-12-14T09:31:47;20.85;;;9.02;;
53263;SDS011;39153;52.680;6.172;2023-12-14T09:34:12;20.80;;;8.80;;
53263;SDS011;39153;52.680;6.172;2023-12-14T09:36:39;20.15;;;9.55;;
53263;SDS011;39153;52.680;6.172;2023-12-14T09:39:05;26.83;;;10.02;;
53263;SDS011;39153;52.680;6.172;2023-12-14T09:41:35;24.67;;;9.65;;
53263;SDS011;39153;52.680;6.172;2023-12-14T09:44:03;26.25;;;10.40;;
53263;SDS011;39153;52.680;6.172;2023-12-14T09:46:31;22.65;;;8.90;;
53263;SDS011;39153;52.680;6.172;2023-12-14T09:48:59;23.70;;;10.00;;
53263;SDS011;39153;52.680;6.172;2023-12-14T09:51:26;26.80;;;9.90;;
53263;SDS011;39153;52.680;6.172;2023-12-14T09:53:52;25.35;;;9.90;;
53263;SDS011;39153;52.680;6.172;2023-12-14T09:56:26;24.10;;;9.65;;
53263;SDS011;39153;52.680;6.172;2023-12-14T09:58:52;23.17;;;10.35;;
53263;SDS011;39153;52.680;6.172;2023-12-14T10:01:25;20.50;;;9.27;;
53263;SDS011;39153;52.680;6.172;2023-12-14T10:06:34;23.15;;;9.88;;
53263;SDS011;39153;52.680;6.172;2023-12-14T10:09:00;23.80;;;10.02;;
53263;SDS011;39153;52.680;6.172;2023-12-14T10:11:26;23.23;;;9.32;;
53263;SDS011;39153;52.680;6.172;2023-12-14T10:13:52;19.65;;;9.43;;
53263;SDS011;39153;52.680;6.172;2023-12-14T10:16:30;18.60;;;8.88;;
53263;SDS011;39153;52.680;6.172;2023-12-14T10:18:58;22.00;;;9.00;;
53263;SDS011;39153;52.680;6.172;2023-12-14T10:21:28;19.40;;;8.75;;
53263;SDS011;39153;52.680;6.172;2023-12-14T10:23:57;23.02;;;10.15;;
53263;SDS011;39153;52.680;6.172;2023-12-14T10:26:23;26.58;;;10.18;;
53263;SDS011;39153;52.680;6.172;2023-12-14T10:28:51;23.77;;;10.23;;
53263;SDS011;39153;52.680;6.172;2023-12-14T10:31:19;24.27;;;10.32;;
53263;SDS011;39153;52.680;6.172;2023-12-14T10:33:46;18.67;;;8.90;;
53263;SDS011;39153;52.680;6.172;2023-12-14T10:36:13;25.48;;;8.70;;
53263;SDS011;39153;52.680;6.172;2023-12-14T10:38:39;25.02;;;9.82;;
53263;SDS011;39153;52.680;6.172;2023-12-14T10:41:08;21.33;;;8.88;;
53263;SDS011;39153;52.680;6.172;2023-12-14T10:43:36;21.23;;;10.05;;
53263;SDS011;39153;52.680;6.172;2023-12-14T10:46:04;18.88;;;9.10;;
53263;SDS011;39153;52.680;6.172;2023-12-14T10:48:34;20.45;;;9.35;;
53263;SDS011;39153;52.680;6.172;2023-12-14T10:51:02;22.55;;;9.00;;
53263;SDS011;39153;52.680;6.172;2023-12-14T10:53:30;22.83;;;9.80;;
53263;SDS011;39153;52.680;6.172;2023-12-14T10:55:57;20.33;;;9.20;;
53263;SDS011;39153;52.680;6.172;2023-12-14T10:58:25;24.10;;;9.98;;
53263;SDS011;39153;52.680;6.172;2023-12-14T11:00:58;20.65;;;9.57;;
53263;SDS011;39153;52.680;6.172;2023-12-14T11:03:32;22.02;;;9.85;;
53263;SDS011;39153;52.680;6.172;2023-12-14T11:05:59;19.15;;;9.60;;
53263;SDS011;39153;52.680;6.172;2023-12-14T11:08:25;19.75;;;9.57;;
53263;SDS011;39153;52.680;6.172;2023-12-14T11:10:54;18.98;;;9.13;;
53263;SDS011;39153;52.680;6.172;2023-12-14T11:13:35;18.83;;;8.75;;
53263;SDS011;39153;52.680;6.172;2023-12-14T11:16:03;21.95;;;9.80;;
53263;SDS011;39153;52.680;6.172;2023-12-14T11:18:29;19.33;;;9.43;;
53263;SDS011;39153;52.680;6.172;2023-12-14T11:20:56;18.55;;;8.85;;
53263;SDS011;39153;52.680;6.172;2023-12-14T11:25:53;17.55;;;8.57;;
53263;SDS011;39153;52.680;6.172;2023-12-14T11:28:20;26.15;;;11.60;;
53263;SDS011;39153;52.680;6.172;2023-12-14T11:30:46;22.55;;;10.32;;
53263;SDS011;39153;52.680;6.172;2023-12-14T11:33:12;18.63;;;8.15;;
53263;SDS011;39153;52.680;6.172;2023-12-14T11:35:39;20.17;;;9.48;;
53263;SDS011;39153;52.680;6.172;2023-12-14T11:38:05;15.50;;;8.15;;
53263;SDS011;39153;52.680;6.172;2023-12-14T11:40:37;20.40;;;9.90;;
53263;SDS011;39153;52.680;6.172;2023-12-14T11:43:04;19.58;;;9.43;;
53263;SDS011;39153;52.680;6.172;2023-12-14T11:45:37;17.08;;;8.10;;
53263;SDS011;39153;52.680;6.172;2023-12-14T11:48:03;13.88;;;7.05;;
53263;SDS011;39153;52.680;6.172;2023-12-14T11:50:34;16.65;;;7.10;;
53263;SDS011;39153;52.680;6.172;2023-12-14T11:53:03;18.38;;;8.05;;
53263;SDS011;39153;52.680;6.172;2023-12-14T11:55:29;16.40;;;8.25;;
53263;SDS011;39153;52.680;6.172;2023-12-14T11:57:56;18.63;;;8.35;;
53263;SDS011;39153;52.680;6.172;2023-12-14T12:00:26;17.92;;;8.27;;
53263;SDS011;39153;52.680;6.172;2023-12-14T12:05:43;15.93;;;8.05;;
53263;SDS011;39153;52.680;6.172;2023-12-14T12:08:11;14.02;;;7.00;;
53263;SDS011;39153;52.680;6.172;2023-12-14T12:10:38;18.35;;;7.53;;
53263;SDS011;39153;52.680;6.172;2023-12-14T12:13:05;16.55;;;7.28;;
53263;SDS011;39153;52.680;6.172;2023-12-14T12:15:33;15.27;;;8.40;;
53263;SDS011;39153;52.680;6.172;2023-12-14T12:18:07;19.05;;;9.25;;
53263;SDS011;39153;52.680;6.172;2023-12-14T12:20:43;20.63;;;9.57;;
53263;SDS011;39153;52.680;6.172;2023-12-14T12:23:08;19.15;;;8.77;;
53263;SDS011;39153;52.680;6.172;2023-12-14T12:25:34;20.23;;;8.98;;
53263;SDS011;39153;52.680;6.172;2023-12-14T12:28:01;18.50;;;8.43;;
53263;SDS011;39153;52.680;6.172;2023-12-14T12:30:29;17.45;;;8.63;;
53263;SDS011;39153;52.680;6.172;2023-12-14T12:32:54;18.58;;;8.50;;
53263;SDS011;39153;52.680;6.172;2023-12-14T12:35:21;15.23;;;8.63;;
53263;SDS011;39153;52.680;6.172;2023-12-14T12:37:47;16.95;;;7.85;;
53263;SDS011;39153;52.680;6.172;2023-12-14T12:40:18;19.13;;;7.80;;
53263;SDS011;39153;52.680;6.172;2023-12-14T12:42:46;16.55;;;7.72;;
53263;SDS011;39153;52.680;6.172;2023-12-14T12:45:13;15.20;;;7.57;;
53263;SDS011;39153;52.680;6.172;2023-12-14T12:47:41;16.08;;;7.20;;
53263;SDS011;39153;52.680;6.172;2023-12-14T12:50:06;16.67;;;7.90;;
53263;SDS011;39153;52.680;6.172;2023-12-14T12:52:32;14.82;;;8.00;;
53263;SDS011;39153;52.680;6.172;2023-12-14T12:54:58;15.45;;;7.72;;
53263;SDS011;39153;52.680;6.172;2023-12-14T12:57:25;17.25;;;7.70;;
53263;SDS011;39153;52.680;6.172;2023-12-14T12:59:51;17.85;;;8.43;;
53263;SDS011;39153;52.680;6.172;2023-12-14T13:02:17;16.52;;;8.50;;
53263;SDS011;39153;52.680;6.172;2023-12-14T13:04:42;18.40;;;8.93;;
53263;SDS011;39153;52.680;6.172;2023-12-14T13:07:08;18.98;;;8.57;;
53263;SDS011;39153;52.680;6.172;2023-12-14T13:09:34;18.45;;;8.35;;
53263;SDS011;39153;52.680;6.172;2023-12-14T13:12:00;16.88;;;7.38;;
53263;SDS011;39153;52.680;6.172;2023-12-14T13:14:25;16.58;;;7.85;;
53263;SDS011;39153;52.680;6.172;2023-12-14T13:16:51;16.13;;;7.45;;
53263;SDS011;39153;52.680;6.172;2023-12-14T13:19:17;17.92;;;8.30;;
53263;SDS011;39153;52.680;6.172;2023-12-14T13:21:42;17.25;;;7.63;;
53263;SDS011;39153;52.680;6.172;2023-12-14T13:24:08;16.77;;;7.43;;
53263;SDS011;39153;52.680;6.172;2023-12-14T13:26:34;20.25;;;8.15;;
53263;SDS011;39153;52.680;6.172;2023-12-14T13:28:59;14.88;;;7.13;;
53263;SDS011;39153;52.680;6.172;2023-12-14T13:31:25;15.70;;;8.05;;
53263;SDS011;39153;52.680;6.172;2023-12-14T13:33:51;15.68;;;8.15;;
53263;SDS011;39153;52.680;6.172;2023-12-14T13:36:18;21.02;;;8.50;;
53263;SDS011;39153;52.680;6.172;2023-12-14T13:38:44;20.83;;;8.93;;
53263;SDS011;39153;52.680;6.172;2023-12-14T13:41:10;16.77;;;7.65;;
53263;SDS011;39153;52.680;6.172;2023-12-14T13:43:36;17.95;;;8.13;;
53263;SDS011;39153;52.680;6.172;2023-12-14T13:46:02;16.90;;;7.80;;
53263;SDS011;39153;52.680;6.172;2023-12-14T13:48:28;16.42;;;8.40;;
53263;SDS011;39153;52.680;6.172;2023-12-14T13:50:54;15.68;;;8.23;;
53263;SDS011;39153;52.680;6.172;2023-12-14T13:53:20;15.23;;;7.93;;
53263;SDS011;39153;52.680;6.172;2023-12-14T13:55:47;16.60;;;8.25;;
53263;SDS011;39153;52.680;6.172;2023-12-14T13:58:14;18.33;;;7.75;;
53263;SDS011;39153;52.680;6.172;2023-12-14T14:00:40;18.52;;;8.00;;
53263;SDS011;39153;52.680;6.172;2023-12-14T14:03:06;14.90;;;7.63;;
53263;SDS011;39153;52.680;6.172;2023-12-14T14:05:33;16.55;;;8.13;;
53263;SDS011;39153;52.680;6.172;2023-12-14T14:07:59;16.83;;;7.82;;
53263;SDS011;39153;52.680;6.172;2023-12-14T14:10:25;16.88;;;8.05;;
53263;SDS011;39153;52.680;6.172;2023-12-14T14:12:51;16.98;;;7.78;;
53263;SDS011;39153;52.680;6.172;2023-12-14T14:15:17;15.60;;;7.32;;
53263;SDS011;39153;52.680;6.172;2023-12-14T14:17:43;17.98;;;7.93;;
53263;SDS011;39153;52.680;6.172;2023-12-14T14:20:09;15.38;;;7.78;;
53263;SDS011;39153;52.680;6.172;2023-12-14T14:22:38;15.27;;;8.05;;
53263;SDS011;39153;52.680;6.172;2023-12-14T14:25:04;18.13;;;8.45;;
53263;SDS011;39153;52.680;6.172;2023-12-14T14:27:31;20.13;;;7.97;;
53263;SDS011;39153;52.680;6.172;2023-12-14T14:29:58;16.85;;;7.85;;
53263;SDS011;39153;52.680;6.172;2023-12-14T14:32:24;14.63;;;7.43;;
53263;SDS011;39153;52.680;6.172;2023-12-14T14:34:50;18.75;;;7.55;;
53263;SDS011;39153;52.680;6.172;2023-12-14T14:37:16;16.45;;;7.63;;
53263;SDS011;39153;52.680;6.172;2023-12-14T14:39:42;16.25;;;7.65;;